Terminal Aerodrome Forecast
Issued by NWS

Current Version | Previous Version | Text Only | Print | Product List | Glossary Off
Versions: 1 2 3 4 5 6 7 8 9 10 11 12 13 14 15 16 17 18

153
FTUS41 KPBZ 211735
TAFMGW
TAF
KMGW 211735Z 2118/2218 20006KT P6SM SCT150
     FM221100 19004KT P6SM VCSH OVC025
     FM221500 20004KT P6SM BKN035=

USA.gov is the U.S. government's official web portal to all federal, state and local government web resources and services.